Terminal Aerodrome Forecast
Issued by NWS Raleigh/Durham, NC

Home | Current Version | Previous Version | Text Only | Print | Product List | Glossary On
Versions: 1 2 3 4 5 6 7 8 9 10 11 12 13 14 15 16 17 18 19 20 21 22 23 24 25
000
FTUS42 KRAH 261729
TAFFAY
TAF
KFAY 261729Z 2618/2718 22009KT P6SM SCT050
     FM270600 20004KT P6SM FEW050
      TEMPO 2709/2712 4SM BR
     FM271500 19007KT P6SM SCT050=

USA.gov is the U.S. government's official web portal to all federal, state and local government web resources and services.